Hollis Center, Maine
Current Conditions -  °F | °C
As of 10:51 PM on Saturday 22 Nov 2014 (Local Time) from KPWM Reporting Station
Broken Clouds Broken Clouds  
Wind Chill: 33°   Ceiling: 7000
Heat Index: 40°   Visibility: 10mi
Dew Point: 13°   Wind: 13mph
Humidity: 33%   Direction: 230°SW
Pressure: 29.97"   Gusts: NA
Location:  43.6°N, 70.59°W
Report Text: KPWM 230351Z 23011KT 10SM BKN070 04/M11 A2997 RMK AO2 SLP150 T00441106
Loading
Personal Weather Stations






























Interactive Weather Map New forecast layout! Learn more

10-Day Weather Forecast

Advertisements
Track Severe Weather on mobile